Decoded Metar for LYBT (BELGRADE BATAJNICA in SERBIA) (IATA:N/A) | Meteo·Mobile Aviation Weather
aviador You're here:

LYBT Decoded Metar

BELGRADE BATAJNICA in SERBIA
Report Time2018-10-17 20:00:00
UTC Time2018-10-17 20:30:36
Flight Rules vfr VFR
Wind050° at 05 kt
W.Decomp.*RWY 12: 1.4 kt HW 4.8 kt LCW
W.Rank050° ranks 28
Current wind is above 050° avg. (4.9)
Visibility9999 m
Phenomena:N/A
Clouds:N/A
Expected CloudBase > 4,000 ft AGL from Temp-Dew spread
CeilingNone
Temp15°C (ISA +1)
Dew Point05°C (51% RH)
AAT12.1°C
QNH1019 hPa
Density Alt243 ft
Elevation262 ft
Report Wrong Elevation
Raw Report
METAR LYBT 172000Z 05005KT CAVOK 15/05 Q1019 NOSIG=

Extra information for LYBT:More info

Metar Taf Metar & Taf Last 4 Metars F.Rules Stats Wind Profile Meteogram Temp Stats Airport Information Weather charts Add Link Nearby VenuesMetar ALERT Operation Metar Decoded Social comments